Time;durP1;ratioP1;P1;durP2;ratioP2;P2;SDS_P1;SDS_P2;PMS_P1;PMS_P2;Temp;Humidity;BMP_temperature;BMP_pressure;BME280_temperature;BME280_humidity;BME280_pressure;Samples;Min_cycle;Max_cycle;Signal;HPM_P1;HPM_P2
2021/12/29 00:00:45;;;;;;;23.60;12.63;;;;;;;2.71;nan;99707.16;5052239;28;20442;-73
2021/12/29 00:03:31;;;;;;;23.13;11.60;;;;;;;2.75;nan;99711.78;5050101;28;20053;-72
2021/12/29 00:06:17;;;;;;;23.55;12.07;;;;;;;2.69;nan;99702.13;5061103;28;20063;-73
2021/12/29 00:09:03;;;;;;;22.92;11.98;;;;;;;2.65;nan;99693.09;5046728;28;20119;-73
2021/12/29 00:11:50;;;;;;;21.42;11.45;;;;;;;2.67;nan;99706.72;5036666;28;20506;-72
2021/12/29 00:14:37;;;;;;;21.50;11.35;;;;;;;2.77;nan;99722.75;5055000;28;20033;-73
2021/12/29 00:17:23;;;;;;;21.33;11.65;;;;;;;2.70;nan;99711.53;5052439;28;20040;-73
2021/12/29 00:20:10;;;;;;;20.52;10.82;;;;;;;2.52;nan;99680.03;5054052;28;20124;-73
2021/12/29 00:23:03;;;;;;;24.23;11.75;;;;;;;2.65;nan;99703.50;5041438;28;20033;-73
2021/12/29 00:25:48;;;;;;;23.48;11.02;;;;;;;2.59;nan;99695.69;5045593;28;20491;-73
2021/12/29 00:28:34;;;;;;;21.52;11.35;;;;;;;2.73;nan;99702.53;5040988;28;20045;-73
2021/12/29 00:31:20;;;;;;;24.00;11.30;;;;;;;2.66;nan;99710.31;5051228;28;20827;-73
2021/12/29 00:34:06;;;;;;;21.48;11.48;;;;;;;2.77;nan;99724.56;5045790;28;20032;-73
2021/12/29 00:36:52;;;;;;;22.25;12.00;;;;;;;2.61;nan;99698.88;5037452;28;20029;-72
2021/12/29 00:39:37;;;;;;;22.58;12.18;;;;;;;2.68;nan;99707.50;5050565;28;20033;-73
2021/12/29 00:42:23;;;;;;;20.55;11.45;;;;;;;2.79;nan;99719.19;5040119;28;20549;-73
2021/12/29 00:45:09;;;;;;;21.95;11.75;;;;;;;2.65;nan;99703.50;5034147;28;20052;-73
2021/12/29 00:47:55;;;;;;;20.92;11.02;;;;;;;2.65;nan;99703.50;5045357;28;20041;-73
2021/12/29 00:50:41;;;;;;;22.38;11.23;;;;;;;2.70;nan;99703.72;5052497;28;20525;-73
2021/12/29 00:53:27;;;;;;;21.08;11.13;;;;;;;2.45;nan;99667.00;5048731;28;20033;-73
2021/12/29 00:56:13;;;;;;;25.13;12.27;;;;;;;2.61;nan;99702.28;5058128;28;20048;-73
2021/12/29 00:58:59;;;;;;;25.15;12.80;;;;;;;2.64;nan;99704.50;5040910;28;20112;-73
2021/12/29 01:01:46;;;;;;;23.45;13.10;;;;;;;2.53;nan;99676.44;5043925;28;20068;-71
2021/12/29 01:04:32;;;;;;;25.95;13.25;;;;;;;2.53;nan;99679.81;5049820;28;20029;-73
2021/12/29 01:07:18;;;;;;;26.35;13.65;;;;;;;2.60;nan;99684.28;5039680;28;20025;-73
2021/12/29 01:10:04;;;;;;;24.83;13.52;;;;;;;2.64;nan;99688.09;5047425;28;20391;-73
2021/12/29 01:12:57;;;;;;;23.40;12.00;;;;;;;2.64;nan;99691.50;5046081;28;20068;-73
2021/12/29 01:18:49;;;;;;;25.35;13.55;;;;;;;2.50;nan;99662.03;5011484;28;20376;-73
2021/12/29 01:21:36;;;;;;;24.83;12.45;;;;;;;2.62;nan;99680.50;5041032;28;20124;-73
2021/12/29 01:24:22;;;;;;;23.60;12.45;;;;;;;2.46;nan;99655.59;5047893;28;20061;-72
2021/12/29 01:27:08;;;;;;;26.55;12.25;;;;;;;2.60;nan;99672.06;5042787;28;20053;-72
2021/12/29 01:29:54;;;;;;;22.38;11.38;;;;;;;2.39;nan;99638.34;5042087;28;20120;-72
2021/12/29 01:32:41;;;;;;;23.10;11.70;;;;;;;2.61;nan;99665.91;5046780;28;20048;-72
2021/12/29 01:35:27;;;;;;;24.80;12.82;;;;;;;2.55;nan;99670.03;5046896;28;20052;-72
2021/12/29 01:38:13;;;;;;;23.25;11.75;;;;;;;2.63;nan;99684.69;5046873;28;20040;-73
2021/12/29 01:40:58;;;;;;;22.50;12.35;;;;;;;2.58;nan;99674.06;5042435;28;20442;-72
2021/12/29 01:43:44;;;;;;;22.50;11.75;;;;;;;2.68;nan;99690.13;5050091;28;20056;-72
2021/12/29 01:46:30;;;;;;;21.83;11.23;;;;;;;2.66;nan;99681.72;5038183;28;20033;-72
2021/12/29 01:49:16;;;;;;;20.80;11.48;;;;;;;2.65;nan;99685.28;5044176;28;20082;-73
2021/12/29 01:52:09;;;;;;;21.08;11.00;;;;;;;2.62;nan;99677.09;5041103;28;20040;-73
2021/12/29 01:54:56;;;;;;;21.35;10.57;;;;;;;2.71;nan;99701.94;5046081;28;20127;-73
2021/12/29 01:57:42;;;;;;;22.83;11.90;;;;;;;2.50;nan;99658.63;5049321;28;20119;-72
2021/12/29 02:00:31;;;;;;;22.80;10.93;;;;;;;2.66;nan;99686.91;5038526;28;20091;-73
2021/12/29 02:03:17;;;;;;;22.77;12.15;;;;;;;2.64;nan;99673.31;5033381;28;20087;-73
2021/12/29 02:06:03;;;;;;;24.30;12.40;;;;;;;2.71;nan;99692.34;5034133;28;20080;-73
2021/12/29 02:08:49;;;;;;;24.08;12.35;;;;;;;2.75;nan;99696.19;5039730;28;20390;-73
2021/12/29 02:11:37;;;;;;;23.73;11.38;;;;;;;2.73;nan;99690.38;5034288;28;20033;-73
2021/12/29 02:14:23;;;;;;;18.83;10.05;;;;;;;2.66;nan;99671.31;5041933;28;20041;-72
2021/12/29 02:17:12;;;;;;;24.00;11.85;;;;;;;2.79;nan;99693.19;5047719;28;20547;-73
2021/12/29 02:20:00;;;;;;;21.10;11.85;;;;;;;2.65;nan;99669.69;5038687;28;20033;-73
2021/12/29 02:22:53;;;;;;;21.25;11.18;;;;;;;2.74;nan;99680.75;5051750;28;20120;-72
2021/12/29 02:25:48;;;;;;;19.88;10.13;;;;;;;2.69;nan;99660.53;5048285;28;20052;-73
2021/12/29 02:28:39;;;;;;;19.83;10.90;;;;;;;2.59;nan;99659.28;5036767;28;20033;-73
2021/12/29 02:31:25;;;;;;;21.98;11.60;;;;;;;2.57;nan;99663.88;5053165;28;20124;-72
2021/12/29 02:34:14;;;;;;;20.08;10.70;;;;;;;2.53;nan;99659.03;5052352;28;20041;-73
2021/12/29 02:37:03;;;;;;;21.75;10.48;;;;;;;2.46;nan;99637.41;5038027;28;20033;-73
2021/12/29 02:39:51;;;;;;;20.58;11.07;;;;;;;2.52;nan;99648.84;5040033;28;20048;-72
2021/12/29 02:42:41;;;;;;;22.70;11.18;;;;;;;2.54;nan;99646.88;5032500;28;20029;-73
2021/12/29 02:45:29;;;;;;;21.75;11.10;;;;;;;2.52;nan;99648.84;5037859;28;20116;-72
2021/12/29 02:48:16;;;;;;;20.63;11.00;;;;;;;2.54;nan;99658.06;5040333;28;20064;-73
2021/12/29 02:51:07;;;;;;;21.13;11.60;;;;;;;2.58;nan;99657.66;5037123;28;20038;-73
2021/12/29 02:53:52;;;;;;;20.95;11.07;;;;;;;2.62;nan;99658.91;5034570;28;20030;-73
2021/12/29 02:56:38;;;;;;;20.10;10.63;;;;;;;2.62;nan;99666.69;5051518;28;20044;-72
2021/12/29 02:59:24;;;;;;;22.42;11.30;;;;;;;2.62;nan;99667.50;5041978;28;20088;-73
2021/12/29 03:02:10;;;;;;;20.30;11.32;;;;;;;2.58;nan;99653.25;5035077;28;20067;-72
2021/12/29 03:04:59;;;;;;;24.15;11.90;;;;;;;2.57;nan;99643.06;5035692;28;20041;-73
2021/12/29 03:07:45;;;;;;;20.60;10.82;;;;;;;2.36;nan;99608.38;5044661;28;20063;-73
2021/12/29 03:10:31;;;;;;;25.55;11.18;;;;;;;2.58;nan;99640.28;5033975;28;20052;-73
2021/12/29 03:13:16;;;;;;;22.08;11.00;;;;;;;2.60;nan;99642.69;5037116;28;20034;-73
2021/12/29 03:16:03;;;;;;;21.38;10.95;;;;;;;2.65;nan;99661.91;5047073;28;20072;-73
2021/12/29 03:18:49;;;;;;;20.52;11.30;;;;;;;2.54;nan;99639.88;5039249;28;20056;-71
2021/12/29 03:21:36;;;;;;;22.13;11.57;;;;;;;2.58;nan;99642.88;5038392;28;20052;-72
2021/12/29 03:24:22;;;;;;;20.92;10.93;;;;;;;2.49;nan;99637.03;5045152;28;20403;-73
2021/12/29 03:27:08;;;;;;;24.77;11.13;;;;;;;2.58;nan;99650.66;5031914;28;20030;-72
2021/12/29 03:29:53;;;;;;;23.02;11.07;;;;;;;2.50;nan;99637.84;5050220;28;20037;-72
2021/12/29 03:32:43;;;;;;;29.50;12.27;;;;;;;2.62;nan;99658.91;5051829;28;20064;-72
2021/12/29 03:35:31;;;;;;;25.52;11.63;;;;;;;2.52;nan;99648.84;5053011;28;20039;-73
2021/12/29 03:38:23;;;;;;;22.35;11.98;;;;;;;2.51;nan;99650.66;5041189;28;20045;-73
2021/12/29 03:41:11;;;;;;;22.45;11.10;;;;;;;2.53;nan;99659.03;5043970;28;20033;-73
2021/12/29 03:43:57;;;;;;;20.50;10.70;;;;;;;2.51;nan;99652.41;5041877;28;20052;-72
2021/12/29 03:46:43;;;;;;;25.40;11.77;;;;;;;2.50;nan;99654.22;5050605;28;20038;-73
2021/12/29 03:49:29;;;;;;;23.15;11.88;;;;;;;2.49;nan;99652.63;5053477;28;20119;-73
2021/12/29 03:52:14;;;;;;;21.67;11.27;;;;;;;2.54;nan;99654.66;5035786;28;20455;-73
2021/12/29 03:55:00;;;;;;;21.80;11.55;;;;;;;2.57;nan;99648.28;5049951;28;20487;-72
2021/12/29 03:57:46;;;;;;;21.40;11.32;;;;;;;2.55;nan;99651.06;5058506;28;20064;-72
2021/12/29 04:00:32;;;;;;;22.27;11.50;;;;;;;2.66;nan;99676.53;5054851;28;20033;-72
2021/12/29 04:03:18;;;;;;;23.95;11.43;;;;;;;2.60;nan;99677.28;5055605;28;20056;-72
2021/12/29 04:06:04;;;;;;;23.35;11.82;;;;;;;2.59;nan;99662.69;5036419;28;20044;-73
2021/12/29 04:08:50;;;;;;;22.13;11.63;;;;;;;2.54;nan;99657.25;5047576;28;20025;-72
2021/12/29 04:11:35;;;;;;;22.25;12.02;;;;;;;2.58;nan;99671.47;5049730;28;20037;-72
2021/12/29 04:14:25;;;;;;;24.77;12.68;;;;;;;2.58;nan;99679.25;5052568;28;20036;-72
2021/12/29 04:17:12;;;;;;;23.88;12.93;;;;;;;2.55;nan;99675.25;5042314;28;20041;-73
2021/12/29 04:23:06;;;;;;;30.90;14.48;;;;;;;2.55;nan;99687.44;5036425;28;20037;-72
2021/12/29 04:25:54;;;;;;;26.60;13.65;;;;;;;2.66;nan;99696.50;5043222;28;20453;-72
2021/12/29 04:28:40;;;;;;;29.08;14.68;;;;;;;2.65;nan;99695.69;5043770;28;20032;-72
2021/12/29 04:31:26;;;;;;;28.35;15.20;;;;;;;2.64;nan;99694.09;5040568;28;20140;-72
2021/12/29 04:34:12;;;;;;;29.58;15.05;;;;;;;2.59;nan;99687.88;5044461;28;20052;-73
2021/12/29 04:36:58;;;;;;;29.63;16.00;;;;;;;2.67;nan;99700.72;5042109;28;20033;-72
2021/12/29 04:39:43;;;;;;;33.22;17.10;;;;;;;2.60;nan;99697.28;5055570;28;20120;-72
2021/12/29 04:42:29;;;;;;;36.28;18.67;;;;;;;2.57;nan;99693.25;5038713;28;20037;-72
2021/12/29 04:45:15;;;;;;;36.92;19.60;;;;;;;2.66;nan;99709.50;5039774;28;20518;-72
2021/12/29 04:48:01;;;;;;;46.15;22.60;;;;;;;2.68;nan;99699.72;5054728;28;20064;-72
2021/12/29 04:50:52;;;;;;;38.83;20.05;;;;;;;2.66;nan;99707.72;5065843;28;20039;-72
2021/12/29 04:53:38;;;;;;;32.75;17.50;;;;;;;2.64;nan;99704.50;5053093;28;20033;-72
2021/12/29 04:56:24;;;;;;;31.45;16.10;;;;;;;2.40;nan;99669.34;5034305;28;20458;-72
2021/12/29 04:59:10;;;;;;;31.38;15.50;;;;;;;2.59;nan;99700.88;5040865;28;20479;-72
2021/12/29 05:01:55;;;;;;;31.08;14.48;;;;;;;2.54;nan;99691.84;5035728;28;20048;-72
2021/12/29 05:04:47;;;;;;;30.55;15.38;;;;;;;2.65;nan;99713.88;5035180;28;20033;-73
2021/12/29 05:10:37;;;;;;;29.75;16.20;;;;;;;2.65;nan;99710.50;5049200;28;20037;-72
2021/12/29 05:13:23;;;;;;;32.10;16.75;;;;;;;2.69;nan;99717.72;5035990;28;20041;-72
2021/12/29 05:16:10;;;;;;;28.13;15.65;;;;;;;2.73;nan;99724.16;5042393;28;20033;-72
2021/12/29 05:18:57;;;;;;;32.42;16.10;;;;;;;2.77;nan;99730.56;5034706;28;20037;-72
2021/12/29 05:21:43;;;;;;;32.28;16.10;;;;;;;2.71;nan;99714.94;5034803;28;20052;-72
2021/12/29 05:24:28;;;;;;;31.08;15.40;;;;;;;2.74;nan;99712.75;5051493;28;20032;-73
2021/12/29 05:27:14;;;;;;;29.38;15.65;;;;;;;2.76;nan;99709.97;5040286;28;20029;-72
2021/12/29 05:30:03;;;;;;;27.90;15.23;;;;;;;2.73;nan;99718.97;5044280;28;20045;-72
2021/12/29 05:32:49;;;;;;;30.80;15.65;;;;;;;2.85;nan;99734.84;5040985;28;20032;-72
2021/12/29 05:35:35;;;;;;;29.05;15.55;;;;;;;2.87;nan;99742.44;5048457;28;20037;-72
2021/12/29 05:38:21;;;;;;;28.85;15.43;;;;;;;2.88;nan;99742.25;5047532;28;20044;-73
2021/12/29 05:41:07;;;;;;;32.90;16.40;;;;;;;2.82;nan;99730.00;5044097;28;20132;-72
2021/12/29 05:43:52;;;;;;;39.47;19.55;;;;;;;2.84;nan;99735.81;5046118;28;20037;-72
2021/12/29 05:46:38;;;;;;;37.97;19.35;;;;;;;2.90;nan;99749.88;5041457;28;20052;-72
2021/12/29 05:49:24;;;;;;;45.65;22.58;;;;;;;2.90;nan;99750.66;5045303;28;20029;-72
2021/12/29 05:52:10;;;;;;;47.00;23.05;;;;;;;2.87;nan;99748.44;5047045;28;20041;-72
2021/12/29 05:54:56;;;;;;;44.25;21.00;;;;;;;2.89;nan;99749.03;5038061;28;20037;-72
2021/12/29 05:57:43;;;;;;;40.00;19.55;;;;;;;2.66;nan;99714.69;5036253;28;20041;-71
2021/12/29 06:00:29;;;;;;;33.45;18.08;;;;;;;2.89;nan;99756.03;5046980;28;20376;-72
2021/12/29 06:03:15;;;;;;;33.03;17.15;;;;;;;2.84;nan;99751.41;5044317;28;20056;-73
2021/12/29 06:06:01;;;;;;;26.13;13.98;;;;;;;2.85;nan;99752.22;5033525;28;20099;-72
2021/12/29 06:08:46;;;;;;;25.77;13.32;;;;;;;2.90;nan;99761.06;5035340;28;20116;-72
2021/12/29 06:11:32;;;;;;;27.77;13.25;;;;;;;2.86;nan;99769.44;5036488;28;20120;-70
2021/12/29 06:14:18;;;;;;;23.38;11.95;;;;;;;2.80;nan;99754.59;5033060;28;20529;-72
2021/12/29 06:17:04;;;;;;;23.23;11.88;;;;;;;2.77;nan;99756.56;5033258;28;20034;-72
2021/12/29 06:19:50;;;;;;;22.42;12.13;;;;;;;2.85;nan;99767.81;5040179;28;20064;-72
2021/12/29 06:22:36;;;;;;;21.33;11.63;;;;;;;2.87;nan;99784.81;5034793;28;20025;-73
2021/12/29 06:25:22;;;;;;;20.08;10.68;;;;;;;2.86;nan;99779.84;5042004;28;20037;-73
2021/12/29 06:28:09;;;;;;;20.67;10.98;;;;;;;2.75;nan;99774.16;5034716;28;20029;-73
2021/12/29 06:30:54;;;;;;;20.67;10.75;;;;;;;2.69;nan;99766.31;5048091;28;20044;-73
2021/12/29 06:33:40;;;;;;;19.70;10.25;;;;;;;2.80;nan;99789.19;5037676;28;20033;-72
2021/12/29 06:36:26;;;;;;;19.55;10.48;;;;;;;2.52;nan;99743.19;5033754;28;20487;-72
2021/12/29 06:39:12;;;;;;;22.50;11.38;;;;;;;2.81;nan;99785.59;5041433;28;20048;-73
2021/12/29 06:41:57;;;;;;;22.42;11.57;;;;;;;2.85;nan;99786.00;5042913;28;20677;-72
2021/12/29 06:44:45;;;;;;;18.63;9.23;;;;;;;2.86;nan;99796.25;5053264;28;20045;-72
2021/12/29 06:47:31;;;;;;;18.08;9.02;;;;;;;2.74;nan;99790.75;5031728;28;20108;-72
2021/12/29 06:50:17;;;;;;;17.27;8.70;;;;;;;2.66;nan;99779.66;5031307;28;20128;-72
2021/12/29 06:53:03;;;;;;;20.92;9.15;;;;;;;2.67;nan;99792.50;5036689;28;20164;-72
2021/12/29 06:55:48;;;;;;;17.30;9.13;;;;;;;2.73;nan;99807.34;5039031;28;20151;-73
2021/12/29 06:58:34;;;;;;;17.85;9.25;;;;;;;2.68;nan;99804.50;5042383;28;20554;-71
2021/12/29 07:01:20;;;;;;;17.20;9.57;;;;;;;2.67;nan;99808.09;5046008;28;20411;-69
2021/12/29 07:04:07;;;;;;;16.75;8.80;;;;;;;2.66;nan;99809.09;5047533;28;20135;-70
2021/12/29 07:06:53;;;;;;;17.88;9.23;;;;;;;2.63;nan;99814.66;5043006;28;20045;-69
2021/12/29 07:09:39;;;;;;;18.27;10.00;;;;;;;2.70;nan;99831.09;5045802;28;20094;-69
2021/12/29 07:12:25;;;;;;;19.50;9.73;;;;;;;2.62;nan;99825.25;5047044;28;20041;-70
2021/12/29 07:15:11;;;;;;;19.25;10.32;;;;;;;2.69;nan;99852.09;5036771;28;20116;-71
2021/12/29 07:17:56;;;;;;;20.67;10.90;;;;;;;2.70;nan;99856.28;5034324;28;20412;-70
2021/12/29 07:20:44;;;;;;;21.90;10.48;;;;;;;2.66;nan;99850.69;5052561;28;20112;-70
2021/12/29 07:23:29;;;;;;;22.98;10.77;;;;;;;2.59;nan;99839.41;5051629;28;20029;-70
2021/12/29 07:26:15;;;;;;;22.70;10.63;;;;;;;2.71;nan;99863.91;5044347;28;20045;-71
2021/12/29 07:29:02;;;;;;;21.90;11.52;;;;;;;2.72;nan;99873.31;5046444;28;20033;-70
2021/12/29 07:31:48;;;;;;;25.33;12.93;;;;;;;2.73;nan;99868.91;5043286;28;20040;-70
2021/12/29 07:34:34;;;;;;;25.85;11.88;;;;;;;2.61;nan;99855.63;5033031;28;20064;-71
2021/12/29 07:37:20;;;;;;;22.38;10.80;;;;;;;2.63;nan;99869.22;5038929;28;20159;-69
2021/12/29 07:40:08;;;;;;;22.15;11.50;;;;;;;2.74;nan;99891.34;5034447;28;20497;-69
2021/12/29 07:42:54;;;;;;;22.42;10.52;;;;;;;2.67;nan;99888.66;5043065;28;20498;-70
2021/12/29 07:45:42;;;;;;;22.10;10.30;;;;;;;2.66;nan;99892.28;5036771;28;20135;-70
2021/12/29 07:48:30;;;;;;;22.08;11.02;;;;;;;2.67;nan;99890.47;5036202;28;20044;-69
2021/12/29 07:51:16;;;;;;;19.67;9.82;;;;;;;2.74;nan;99899.13;5045443;28;20060;-71
2021/12/29 07:54:03;;;;;;;22.25;11.88;;;;;;;2.74;nan;99904.34;5040928;28;20029;-70
2021/12/29 07:56:49;;;;;;;21.67;10.50;;;;;;;2.67;nan;99891.28;5041442;28;20038;-70
2021/12/29 07:59:35;;;;;;;18.02;9.27;;;;;;;2.72;nan;99907.13;5047676;28;20045;-70
2021/12/29 08:02:27;;;;;;;21.90;10.57;;;;;;;2.68;nan;99903.28;5044880;28;20400;-70
2021/12/29 08:05:13;;;;;;;22.63;11.60;;;;;;;2.71;nan;99904.72;5048871;28;20064;-70
2021/12/29 08:07:59;;;;;;;25.67;12.43;;;;;;;2.64;nan;99896.84;5041920;28;20124;-69
2021/12/29 08:10:45;;;;;;;23.20;11.63;;;;;;;2.58;nan;99891.59;5040943;28;20037;-70
2021/12/29 08:13:30;;;;;;;25.60;10.70;;;;;;;2.66;nan;99901.84;5045130;28;20041;-69
2021/12/29 08:16:16;;;;;;;50.65;16.50;;;;;;;2.71;nan;99917.72;5041963;28;20124;-70
2021/12/29 08:19:04;;;;;;;45.72;14.30;;;;;;;2.67;nan;99916.47;5036748;28;20095;-68
2021/12/29 08:21:49;;;;;;;28.15;12.30;;;;;;;2.67;nan;99911.28;5046964;28;20037;-69
2021/12/29 08:24:36;;;;;;;25.60;12.38;;;;;;;2.72;nan;99908.91;5042310;28;20102;-70
2021/12/29 08:27:22;;;;;;;37.85;14.25;;;;;;;2.69;nan;99912.69;5047279;28;20196;-68
2021/12/29 08:30:08;;;;;;;29.85;12.07;;;;;;;2.72;nan;99912.31;5048078;28;20140;-67
2021/12/29 08:32:54;;;;;;;34.45;13.45;;;;;;;2.72;nan;99914.13;5040218;28;20042;-72
2021/12/29 08:35:40;;;;;;;24.33;11.80;;;;;;;2.72;nan;99914.91;5037501;28;20067;-73
2021/12/29 08:38:26;;;;;;;21.00;10.57;;;;;;;2.71;nan;99907.31;5038025;28;20025;-73
2021/12/29 08:41:12;;;;;;;21.42;10.07;;;;;;;2.74;nan;99925.94;5041472;28;20111;-72
2021/12/29 08:43:58;;;;;;;19.45;10.02;;;;;;;2.63;nan;99904.81;5034729;28;20029;-73
2021/12/29 08:46:45;;;;;;;18.58;10.38;;;;;;;2.62;nan;99904.03;5033143;28;20034;-73
2021/12/29 08:49:31;;;;;;;19.20;9.40;;;;;;;2.60;nan;99900.81;5039859;28;20399;-73
2021/12/29 08:52:17;;;;;;;18.88;9.68;;;;;;;2.68;nan;99913.69;5034453;28;20039;-72
2021/12/29 08:55:04;;;;;;;16.13;7.88;;;;;;;2.64;nan;99911.66;5038784;28;20033;-72
2021/12/29 08:57:50;;;;;;;20.63;9.30;;;;;;;2.70;nan;99916.88;5036089;28;20460;-73
2021/12/29 09:00:35;;;;;;;20.08;9.35;;;;;;;2.66;nan;99910.47;5036762;28;20044;-73
2021/12/29 09:03:22;;;;;;;20.33;8.85;;;;;;;2.63;nan;99905.63;5039361;28;20529;-72
2021/12/29 09:06:07;;;;;;;18.08;9.38;;;;;;;2.73;nan;99915.72;5039948;28;20051;-72
2021/12/29 09:08:54;;;;;;;20.30;9.55;;;;;;;2.70;nan;99901.28;5039563;28;20073;-72
2021/12/29 09:11:40;;;;;;;23.38;9.80;;;;;;;2.49;nan;99865.72;5037811;28;20037;-72
2021/12/29 09:14:26;;;;;;;19.08;8.85;;;;;;;2.77;nan;99901.34;5045632;28;20112;-71
2021/12/29 09:17:12;;;;;;;16.15;7.88;;;;;;;2.79;nan;99914.97;5043525;28;20040;-73
2021/12/29 09:20:00;;;;;;;19.52;9.25;;;;;;;2.81;nan;99904.41;5053336;28;20028;-73
2021/12/29 09:22:46;;;;;;;17.73;8.27;;;;;;;2.72;nan;99896.72;5041841;28;20521;-74
2021/12/29 09:25:33;;;;;;;21.05;8.50;;;;;;;2.78;nan;99905.59;5064433;28;20090;-73
2021/12/29 09:28:19;;;;;;;17.98;8.10;;;;;;;2.73;nan;99897.50;5043539;28;20048;-74
2021/12/29 09:31:04;;;;;;;16.80;8.20;;;;;;;2.85;nan;99908.22;5044629;28;20045;-74
2021/12/29 09:33:51;;;;;;;22.90;10.05;;;;;;;2.88;nan;99907.88;5046855;28;20047;-73
2021/12/29 09:36:37;;;;;;;19.88;8.77;;;;;;;2.87;nan;99904.44;5048924;28;20774;-73
2021/12/29 09:39:24;;;;;;;17.58;8.30;;;;;;;2.90;nan;99909.28;5042731;28;20039;-73
2021/12/29 09:42:10;;;;;;;16.67;8.48;;;;;;;2.92;nan;99904.72;5048511;28;20025;-72
2021/12/29 09:44:56;;;;;;;22.27;9.50;;;;;;;2.87;nan;99895.84;5034694;28;20037;-73
2021/12/29 09:47:42;;;;;;;19.00;8.68;;;;;;;2.98;nan;99908.34;5046437;28;20656;-73
2021/12/29 09:50:28;;;;;;;20.08;9.57;;;;;;;2.97;nan;99904.16;5037727;28;20030;-73
2021/12/29 09:53:15;;;;;;;21.83;9.52;;;;;;;2.90;nan;99888.50;5032261;28;20038;-73
2021/12/29 09:56:01;;;;;;;23.90;10.55;;;;;;;2.74;nan;99860.16;5039630;28;20116;-73
2021/12/29 09:58:47;;;;;;;22.27;10.75;;;;;;;2.96;nan;99894.72;5040664;28;20033;-72
2021/12/29 10:01:33;;;;;;;21.40;10.57;;;;;;;3.05;nan;99895.41;5033689;28;20483;-73
2021/12/29 10:04:19;;;;;;;25.80;10.13;;;;;;;3.09;nan;99902.66;5033930;28;20042;-73
2021/12/29 10:07:16;;;;;;;24.02;10.27;;;;;;;3.07;nan;99896.84;5039473;28;20033;-73
2021/12/29 10:10:17;;;;;;;22.08;11.45;;;;;;;3.08;nan;99905.44;5046969;28;20047;-73
2021/12/29 10:13:03;;;;;;;27.63;11.68;;;;;;;3.11;nan;99900.69;5047419;28;20041;-73
2021/12/29 10:15:59;;;;;;;23.58;10.95;;;;;;;3.05;nan;99903.22;5040973;28;20041;-73
2021/12/29 10:18:48;;;;;;;22.00;10.00;;;;;;;3.14;nan;99913.28;5042164;28;20387;-72
2021/12/29 10:21:35;;;;;;;28.65;11.73;;;;;;;3.16;nan;99910.50;5042278;28;20043;-73
2021/12/29 10:24:22;;;;;;;25.23;12.10;;;;;;;3.17;nan;99907.72;5039304;28;20395;-73
2021/12/29 10:27:16;;;;;;;28.05;14.55;;;;;;;3.21;nan;99913.34;5048769;28;20408;-73
2021/12/29 10:30:17;;;;;;;25.00;12.88;;;;;;;3.15;nan;99920.09;5043862;28;20430;-73
2021/12/29 10:33:13;;;;;;;20.65;11.80;;;;;;;3.17;nan;99918.13;5044013;28;20048;-74
2021/12/29 10:36:18;;;;;;;25.52;13.07;;;;;;;3.13;nan;99916.06;5046927;28;20081;-73
2021/12/29 10:39:23;;;;;;;24.80;13.00;;;;;;;3.23;nan;99919.16;5046692;28;20038;-73
2021/12/29 10:42:21;;;;;;;22.67;10.82;;;;;;;3.24;nan;99912.16;5045630;28;20503;-73
2021/12/29 10:45:07;;;;;;;22.55;10.63;;;;;;;3.23;nan;99911.34;5043949;28;20041;-74
2021/12/29 10:47:53;;;;;;;19.48;9.93;;;;;;;3.20;nan;99909.13;5033947;28;20037;-74
2021/12/29 10:50:38;;;;;;;15.43;8.50;;;;;;;3.07;nan;99899.44;5032590;28;20403;-74
2021/12/29 10:53:24;;;;;;;21.27;9.60;;;;;;;3.17;nan;99910.31;5033830;28;20056;-73
2021/12/29 10:56:24;;;;;;;21.58;9.57;;;;;;;3.09;nan;99894.84;5049854;28;20514;-73
2021/12/29 10:59:20;;;;;;;16.05;8.85;;;;;;;3.16;nan;99905.28;5041324;28;20044;-72
2021/12/29 11:02:09;;;;;;;22.30;10.52;;;;;;;3.09;nan;99894.03;5044592;28;20403;-71
2021/12/29 11:04:57;;;;;;;21.60;9.63;;;;;;;3.15;nan;99904.47;5043072;28;20051;-71
2021/12/29 11:07:43;;;;;;;18.98;9.32;;;;;;;3.06;nan;99884.78;5041408;28;20036;-72
2021/12/29 11:10:29;;;;;;;19.10;9.75;;;;;;;3.11;nan;99890.28;5042994;28;20492;-72
2021/12/29 11:13:29;;;;;;;20.20;10.95;;;;;;;3.15;nan;99901.88;5044436;28;20049;-72
2021/12/29 11:16:18;;;;;;;21.60;10.77;;;;;;;3.16;nan;99900.09;5059156;28;20040;-72
2021/12/29 11:19:04;;;;;;;19.10;9.73;;;;;;;3.13;nan;99892.66;5052985;28;20406;-71
2021/12/29 11:21:50;;;;;;;18.65;10.40;;;;;;;3.17;nan;99902.50;5045901;28;20037;-71
2021/12/29 11:24:36;;;;;;;21.08;10.25;;;;;;;3.14;nan;99902.09;5045072;28;20476;-72
2021/12/29 11:27:23;;;;;;;19.35;9.85;;;;;;;3.20;nan;99911.72;5057162;28;20169;-71
2021/12/29 11:30:13;;;;;;;19.05;9.75;;;;;;;3.22;nan;99906.34;5039753;28;20544;-71
2021/12/29 11:33:17;;;;;;;17.80;9.32;;;;;;;3.22;nan;99909.75;5037351;28;20033;-72
2021/12/29 11:36:04;;;;;;;16.77;9.07;;;;;;;3.22;nan;99904.53;5033582;28;20033;-72
2021/12/29 11:38:50;;;;;;;18.50;9.50;;;;;;;3.19;nan;99900.53;5032111;28;20037;-72
2021/12/29 11:41:36;;;;;;;18.02;9.60;;;;;;;3.25;nan;99904.16;5040875;28;20029;-71
2021/12/29 11:44:22;;;;;;;20.80;9.40;;;;;;;3.24;nan;99907.75;5050582;28;20033;-71
2021/12/29 11:47:10;;;;;;;17.67;9.27;;;;;;;3.24;nan;99904.38;5041982;28;20255;-72
2021/12/29 11:49:56;;;;;;;21.10;9.27;;;;;;;3.15;nan;99893.28;5048038;28;20143;-71
2021/12/29 11:52:44;;;;;;;17.92;9.50;;;;;;;3.28;nan;99913.38;5041764;28;20543;-71
2021/12/29 11:55:33;;;;;;;19.20;10.17;;;;;;;3.16;nan;99897.47;5040841;28;20096;-71
2021/12/29 11:58:29;;;;;;;19.55;9.68;;;;;;;3.29;nan;99909.81;5045788;28;20048;-71
2021/12/29 12:01:19;;;;;;;18.00;8.73;;;;;;;3.23;nan;99905.34;5039416;28;20044;-72
2021/12/29 12:04:10;;;;;;;17.20;9.10;;;;;;;3.25;nan;99908.56;5049621;28;20045;-71
2021/12/29 12:07:02;;;;;;;17.23;9.07;;;;;;;3.25;nan;99903.34;5050496;28;20481;-71
2021/12/29 12:09:50;;;;;;;18.67;9.18;;;;;;;3.32;nan;99914.63;5046092;28;20033;-72
2021/12/29 12:12:42;;;;;;;21.52;9.60;;;;;;;3.30;nan;99911.41;5045646;28;20053;-75
2021/12/29 12:15:36;;;;;;;20.58;10.70;;;;;;;3.31;nan;99916.44;5044262;28;20064;-73
2021/12/29 12:18:22;;;;;;;19.35;9.35;;;;;;;3.26;nan;99908.38;5048324;28;20527;-74
2021/12/29 12:21:25;;;;;;;16.45;9.10;;;;;;;3.36;nan;99926.28;5050578;28;20044;-74
2021/12/29 12:24:21;;;;;;;20.85;10.07;;;;;;;3.26;nan;99911.00;5047426;28;20434;-74
2021/12/29 12:27:16;;;;;;;18.83;9.77;;;;;;;3.31;nan;99918.22;5036755;28;20057;-74
2021/12/29 12:30:36;;;;;;;18.27;9.73;;;;;;;3.30;nan;99908.78;5050720;28;20411;-72
2021/12/29 12:33:26;;;;;;;24.40;10.70;;;;;;;3.38;nan;99927.69;5042690;28;20065;-73
2021/12/29 12:36:12;;;;;;;20.90;11.40;;;;;;;3.35;nan;99925.47;5047732;28;20035;-73
2021/12/29 12:39:13;;;;;;;23.33;13.65;;;;;;;3.38;nan;99934.69;5040151;28;20037;-72
2021/12/29 12:41:59;;;;;;;21.15;11.80;;;;;;;3.35;nan;99929.84;5034999;28;20061;-74
2021/12/29 12:44:45;;;;;;;22.17;11.35;;;;;;;3.42;nan;99933.31;5033255;28;20063;-74
2021/12/29 12:47:32;;;;;;;20.20;10.50;;;;;;;3.44;nan;99943.53;5036802;28;20041;-74
2021/12/29 12:50:25;;;;;;;19.15;9.82;;;;;;;3.37;nan;99939.06;5035349;28;20083;-74
2021/12/29 12:53:14;;;;;;;19.10;10.70;;;;;;;3.38;nan;99940.69;5040801;28;20399;-73
2021/12/29 12:56:02;;;;;;;20.35;9.40;;;;;;;3.34;nan;99942.06;5038930;28;20644;-73
2021/12/29 12:58:51;;;;;;;21.15;11.90;;;;;;;3.43;nan;99955.75;5046712;28;20037;-73
2021/12/29 13:01:42;;;;;;;18.95;10.43;;;;;;;3.43;nan;99958.34;5048019;28;20029;-72
2021/12/29 13:04:28;;;;;;;21.20;10.43;;;;;;;3.32;nan;99938.84;5049315;28;20064;-72
2021/12/29 13:07:23;;;;;;;20.30;10.85;;;;;;;3.32;nan;99953.66;5044489;28;20058;-72
2021/12/29 13:10:13;;;;;;;21.10;10.65;;;;;;;3.37;nan;99959.91;5048497;28;20102;-72
2021/12/29 13:13:10;;;;;;;23.73;13.05;;;;;;;3.46;nan;99976.19;5043971;28;20444;-71
2021/12/29 13:15:58;;;;;;;543.15;126.65;;;;;;;3.55;nan;99977.66;5044500;28;20044;-71
2021/12/29 13:18:45;;;;;;;23.23;11.35;;;;;;;3.56;nan;99965.44;5041762;28;20152;-72
2021/12/29 13:21:35;;;;;;;64.43;32.83;;;;;;;3.56;nan;99968.84;5038163;28;20061;-72
2021/12/29 13:24:21;;;;;;;35.53;17.00;;;;;;;3.57;nan;99991.31;5044780;28;20052;-72
2021/12/29 13:27:08;;;;;;;27.67;14.02;;;;;;;3.47;nan;99979.59;5035016;28;20026;-72
2021/12/29 13:29:59;;;;;;;22.67;12.88;;;;;;;3.45;nan;99990.22;5040535;28;20434;-72